Terminal Aerodrome Forecast
Issued by NWS

Home | Current Version | Previous Version | Text Only | Print | Product List | Glossary On
Versions: 1 2 3 4 5 6 7 8 9 10 11 12 13 14 15 16 17 18 19 20 21 22 23 24 25 26 27 28
000
FTUS41 KILN 291700
TAFLUK
TAF
KLUK 291730Z 2918/3018 31007KT P6SM BKN050
     FM300100 VRB03KT P6SM SCT050
     FM300600 VRB03KT 4SM BR SCT050
     FM301300 VRB03KT P6SM SCT050
     FM301500 27007KT P6SM BKN040=

USA.gov is the U.S. government's official web portal to all federal, state and local government web resources and services.